createdAt,value
2022-11-15T00:00:05.728Z,73.83
2022-11-15T00:01:07.545Z,70.79
2022-11-15T00:02:09.414Z,76.92
2022-11-15T00:03:11.317Z,66.07
2022-11-15T00:04:13.124Z,66.32
2022-11-15T00:05:14.929Z,55.60
2022-11-15T00:06:17.473Z,64.82
2022-11-15T00:07:48.424Z,70.54
2022-11-15T00:08:22.963Z,77.36
2022-11-15T00:09:24.784Z,59.83
2022-11-15T00:10:26.711Z,60.13
2022-11-15T00:11:28.529Z,51.69
2022-11-15T00:12:30.341Z,48.01
2022-11-15T00:13:32.659Z,47.05
2022-11-15T00:14:34.846Z,46.56
2022-11-15T00:15:36.651Z,47.89
2022-11-15T00:16:38.675Z,51.77
2022-11-15T00:17:40.508Z,44.80
2022-11-15T00:18:46.391Z,45.19
2022-11-15T00:19:45.988Z,45.12
2022-11-15T00:20:47.805Z,48.09
2022-11-15T00:21:49.625Z,43.39
2022-11-15T00:22:51.429Z,46.16
2022-11-15T00:23:53.279Z,45.61
2022-11-15T00:24:55.099Z,45.56
2022-11-15T00:25:56.914Z,45.41
2022-11-15T00:26:58.817Z,46.64
2022-11-15T00:28:00.638Z,45.73
2022-11-15T00:29:02.541Z,47.58
2022-11-15T00:30:04.438Z,49.47
2022-11-15T00:31:06.262Z,44.22
2022-11-15T00:32:08.092Z,46.42
2022-11-15T00:33:09.903Z,46.05
2022-11-15T00:34:11.752Z,50.94
2022-11-15T00:35:13.576Z,41.23
2022-11-15T00:36:15.794Z,45.68
2022-11-15T00:37:17.581Z,43.45
2022-11-15T00:38:19.403Z,49.27
2022-11-15T00:39:21.268Z,47.23
2022-11-15T00:40:23.183Z,43.70
2022-11-15T00:41:24.993Z,46.13
2022-11-15T00:42:26.813Z,48.07
2022-11-15T00:43:28.983Z,47.54
2022-11-15T00:44:31.255Z,47.08
2022-11-15T00:45:33.083Z,46.53
2022-11-15T00:46:34.980Z,46.13
2022-11-15T00:47:36.798Z,44.46
2022-11-15T00:48:38.612Z,52.19
2022-11-15T00:49:40.464Z,48.16
2022-11-15T00:50:42.379Z,45.26
2022-11-15T00:51:44.195Z,43.53
2022-11-15T00:52:46.027Z,44.88
2022-11-15T00:53:47.861Z,47.36
2022-11-15T00:54:49.766Z,45.79
2022-11-15T00:55:51.627Z,48.45
2022-11-15T00:56:53.493Z,51.63
2022-11-15T00:57:55.305Z,49.19
2022-11-15T00:58:57.168Z,51.01
2022-11-15T00:59:59.053Z,52.95
2022-11-15T01:01:00.999Z,53.09
2022-11-15T01:02:02.937Z,49.03
2022-11-15T01:03:04.816Z,55.23
2022-11-15T01:04:06.661Z,51.07
2022-11-15T01:05:08.508Z,51.21
2022-11-15T01:06:10.528Z,45.53
2022-11-15T01:07:12.385Z,47.11
2022-11-15T01:08:14.217Z,48.89
2022-11-15T01:09:16.027Z,53.04
2022-11-15T01:10:17.941Z,44.87
2022-11-15T01:11:19.771Z,49.87
2022-11-15T01:12:21.609Z,48.49
2022-11-15T01:13:23.442Z,47.56
2022-11-15T01:14:25.818Z,50.53
2022-11-15T01:15:27.765Z,48.25
2022-11-15T01:16:29.746Z,55.03
2022-11-15T01:17:31.561Z,49.96
2022-11-15T01:18:33.358Z,49.21
2022-11-15T01:19:35.232Z,48.48
2022-11-15T01:20:37.219Z,47.37
2022-11-15T01:21:39.029Z,46.79
2022-11-15T01:22:40.859Z,44.43
2022-11-15T01:23:42.701Z,48.79
2022-11-15T01:24:44.535Z,51.48
2022-11-15T01:25:46.426Z,55.71
2022-11-15T01:26:48.263Z,61.89
2022-11-15T01:27:50.138Z,60.45
2022-11-15T01:28:51.937Z,63.01
2022-11-15T01:29:53.758Z,53.81
2022-11-15T01:30:55.857Z,50.71
2022-11-15T01:31:57.707Z,53.29
2022-11-15T01:32:59.511Z,44.77
2022-11-15T01:34:01.319Z,45.34
2022-11-15T01:35:03.199Z,42.57
2022-11-15T01:36:05.186Z,40.27
2022-11-15T01:37:07.074Z,49.50
2022-11-15T01:38:08.892Z,49.36
2022-11-15T01:39:10.760Z,49.47
2022-11-15T01:40:13.160Z,53.52
2022-11-15T01:41:15.012Z,54.81
2022-11-15T01:42:16.827Z,51.07
2022-11-15T01:43:18.649Z,51.09
2022-11-15T01:44:20.518Z,52.43
2022-11-15T01:45:22.365Z,50.79
2022-11-15T01:46:24.419Z,50.81
2022-11-15T01:47:26.310Z,50.16
2022-11-15T01:48:28.136Z,44.13
2022-11-15T01:49:30.421Z,47.47
2022-11-15T01:50:32.389Z,48.21
2022-11-15T01:51:34.236Z,48.02
2022-11-15T01:52:36.104Z,47.69
2022-11-15T01:53:37.960Z,50.43
2022-11-15T01:54:39.765Z,45.81
2022-11-15T01:55:41.637Z,49.78
2022-11-15T01:56:43.732Z,47.55
2022-11-15T01:57:45.552Z,42.10
2022-11-15T01:58:47.369Z,51.19
2022-11-15T01:59:49.242Z,46.50
2022-11-15T02:00:51.364Z,45.13
2022-11-15T02:01:53.381Z,45.49
2022-11-15T02:02:55.250Z,48.81
2022-11-15T02:03:57.079Z,47.45
2022-11-15T02:04:58.891Z,47.10
2022-11-15T02:06:00.732Z,55.97
2022-11-15T02:07:02.666Z,81.45
2022-11-15T02:08:04.497Z,99.35
2022-11-15T02:09:06.348Z,83.52
2022-11-15T02:10:09.137Z,96.82
2022-11-15T02:11:10.990Z,85.05
2022-11-15T02:12:12.880Z,81.81
2022-11-15T02:13:14.738Z,97.78
2022-11-15T02:14:16.586Z,111.33
2022-11-15T02:15:18.423Z,100.39
2022-11-15T02:16:20.329Z,94.07
2022-11-15T02:17:22.242Z,67.17
2022-11-15T02:18:24.065Z,69.81
2022-11-15T02:19:25.892Z,64.53
2022-11-15T02:20:27.971Z,60.15
2022-11-15T02:21:29.816Z,51.02
2022-11-15T02:22:31.727Z,60.20
2022-11-15T02:23:36.366Z,49.45
2022-11-15T02:24:38.254Z,47.74
2022-11-15T02:25:40.068Z,50.93
2022-11-15T02:26:41.966Z,47.93
2022-11-15T02:27:43.864Z,47.76
2022-11-15T02:28:45.695Z,48.21
2022-11-15T02:29:47.509Z,48.13
2022-11-15T02:30:49.481Z,47.85
2022-11-15T02:31:51.280Z,42.44
2022-11-15T02:32:53.370Z,46.69
2022-11-15T02:33:55.162Z,41.97
2022-11-15T02:34:56.967Z,39.95
2022-11-15T02:35:58.823Z,38.27
2022-11-15T02:37:00.736Z,39.22
2022-11-15T02:38:02.656Z,41.99
2022-11-15T02:39:04.466Z,38.49
2022-11-15T02:40:06.547Z,44.35
2022-11-15T02:41:08.355Z,36.49
2022-11-15T02:42:10.224Z,39.96
2022-11-15T02:43:12.075Z,37.48
2022-11-15T02:44:13.907Z,40.19
2022-11-15T02:45:15.750Z,40.58
2022-11-15T02:46:17.635Z,39.59
2022-11-15T02:47:19.462Z,37.93
2022-11-15T02:48:21.591Z,42.00
2022-11-15T02:49:23.435Z,40.10
2022-11-15T02:50:25.428Z,37.23
2022-11-15T02:51:27.285Z,35.81
2022-11-15T02:52:29.096Z,38.64
2022-11-15T02:53:31.380Z,38.76
2022-11-15T02:54:33.432Z,38.59
2022-11-15T02:55:35.248Z,38.97
2022-11-15T02:56:37.158Z,39.85
2022-11-15T02:57:39.021Z,36.86
2022-11-15T02:58:40.857Z,40.35
2022-11-15T02:59:42.678Z,41.09
2022-11-15T03:00:44.677Z,35.53
2022-11-15T03:01:46.433Z,36.19
2022-11-15T03:02:48.269Z,36.90
2022-11-15T03:03:50.395Z,35.56
2022-11-15T03:04:52.256Z,35.49
2022-11-15T03:05:54.108Z,35.17
2022-11-15T03:06:56.083Z,34.43
2022-11-15T03:08:02.087Z,35.74
2022-11-15T03:09:01.689Z,37.37
2022-11-15T03:10:03.621Z,44.22
2022-11-15T03:11:05.438Z,45.55
2022-11-15T03:12:07.313Z,41.66
2022-11-15T03:13:09.119Z,40.59
2022-11-15T03:14:11.012Z,37.91
2022-11-15T03:15:12.838Z,33.31
2022-11-15T03:16:14.889Z,39.06
2022-11-15T03:17:16.676Z,36.80
2022-11-15T03:18:18.502Z,38.25
2022-11-15T03:19:21.707Z,34.68
2022-11-15T03:20:24.085Z,37.07
2022-11-15T03:21:25.938Z,37.93
2022-11-15T03:22:27.793Z,37.55
2022-11-15T03:23:29.838Z,35.08
2022-11-15T03:24:32.173Z,33.46
2022-11-15T03:25:33.993Z,34.03
2022-11-15T03:26:35.993Z,36.16
2022-11-15T03:27:37.869Z,35.10
2022-11-15T03:28:39.736Z,35.29
2022-11-15T03:29:41.633Z,34.27
2022-11-15T03:30:43.710Z,33.61
2022-11-15T03:31:49.722Z,38.41
2022-11-15T03:32:49.233Z,39.29
2022-11-15T03:33:51.052Z,40.61
2022-11-15T03:34:53.085Z,38.44
2022-11-15T03:35:54.888Z,41.88
2022-11-15T03:36:56.737Z,37.04
2022-11-15T03:37:58.623Z,41.53
2022-11-15T03:39:00.487Z,40.70
2022-11-15T03:40:02.417Z,41.71
2022-11-15T03:42:25.487Z,38.51
2022-11-15T03:43:27.320Z,34.74
2022-11-15T03:44:29.183Z,31.66
2022-11-15T03:45:31.068Z,31.67
2022-11-15T03:46:33.010Z,28.23
2022-11-15T03:47:34.882Z,31.78
2022-11-15T03:48:36.681Z,26.28
2022-11-15T03:49:38.542Z,25.76
2022-11-15T03:50:40.507Z,25.45
2022-11-15T03:51:42.321Z,27.40
2022-11-15T03:52:44.189Z,25.13
2022-11-15T03:53:46.047Z,27.47
2022-11-15T03:54:47.850Z,32.11
2022-11-15T03:55:49.751Z,30.31
2022-11-15T03:56:51.977Z,33.34
2022-11-15T03:57:53.830Z,30.70
2022-11-15T03:58:55.671Z,29.21
2022-11-15T03:59:57.487Z,29.69
2022-11-15T04:00:59.534Z,30.85
2022-11-15T04:02:01.430Z,31.00
2022-11-15T04:03:03.244Z,31.42
2022-11-15T04:04:05.104Z,31.15
2022-11-15T04:05:06.963Z,35.01
2022-11-15T04:06:09.856Z,33.05
2022-11-15T04:07:11.767Z,32.52
2022-11-15T04:08:14.199Z,33.42
2022-11-15T04:09:16.042Z,36.28
2022-11-15T04:10:17.863Z,36.22
2022-11-15T04:11:19.782Z,39.22
2022-11-15T04:12:21.582Z,44.73
2022-11-15T04:13:23.421Z,48.92
2022-11-15T04:14:25.276Z,52.16
2022-11-15T04:15:27.074Z,51.16
2022-11-15T04:16:29.110Z,55.62
2022-11-15T04:17:30.911Z,56.10
2022-11-15T04:18:32.735Z,50.97
2022-11-15T04:19:34.547Z,50.95
2022-11-15T04:20:36.493Z,60.23
2022-11-15T04:21:38.396Z,54.88
2022-11-15T04:22:40.213Z,52.31
2022-11-15T04:23:42.247Z,72.31
2022-11-15T04:24:44.296Z,60.51
2022-11-15T04:25:46.154Z,46.70
2022-11-15T04:26:48.208Z,41.48
2022-11-15T04:27:50.075Z,40.07
2022-11-15T04:28:51.913Z,37.55
2022-11-15T04:29:53.786Z,41.45
2022-11-15T04:30:55.762Z,49.60
2022-11-15T04:31:57.630Z,50.70
2022-11-15T04:32:59.494Z,43.59
2022-11-15T04:34:01.315Z,45.75
2022-11-15T04:35:03.188Z,51.69
2022-11-15T04:36:05.127Z,53.55
2022-11-15T04:37:07.941Z,47.39
2022-11-15T04:38:09.790Z,44.60
2022-11-15T04:39:11.582Z,43.47
2022-11-15T04:40:13.704Z,56.84
2022-11-15T04:41:15.494Z,57.04
2022-11-15T04:42:17.340Z,57.85
2022-11-15T04:43:19.161Z,56.31
2022-11-15T04:44:20.972Z,49.75
2022-11-15T04:45:22.774Z,43.27
2022-11-15T04:46:24.573Z,46.04
2022-11-15T04:47:26.431Z,39.01
2022-11-15T04:48:28.250Z,43.83
2022-11-15T04:49:30.062Z,45.15
2022-11-15T04:50:31.966Z,49.79
2022-11-15T04:51:33.789Z,39.77
2022-11-15T04:52:35.652Z,32.55
2022-11-15T04:53:37.453Z,36.95
2022-11-15T04:54:39.265Z,32.69
2022-11-15T04:55:41.047Z,32.99
2022-11-15T04:56:42.961Z,32.57
2022-11-15T04:57:44.812Z,30.71
2022-11-15T04:58:46.629Z,29.55
2022-11-15T04:59:48.422Z,33.81
2022-11-15T05:00:50.374Z,35.99
2022-11-15T05:01:52.247Z,34.73
2022-11-15T05:02:54.097Z,33.21
2022-11-15T05:03:55.900Z,28.42
2022-11-15T05:04:57.709Z,26.37
2022-11-15T05:05:59.502Z,31.16
2022-11-15T05:07:01.484Z,31.89
2022-11-15T05:08:03.383Z,30.72
2022-11-15T05:09:05.189Z,33.69
2022-11-15T05:10:07.394Z,30.41
2022-11-15T05:11:09.206Z,28.37
2022-11-15T05:12:11.001Z,30.46
2022-11-15T05:13:12.846Z,29.67
2022-11-15T05:14:14.669Z,28.27
2022-11-15T05:15:16.469Z,28.93
2022-11-15T05:16:18.564Z,31.56
2022-11-15T05:17:20.370Z,32.13
2022-11-15T05:18:23.745Z,32.66
2022-11-15T05:19:25.885Z,30.65
2022-11-15T05:20:27.682Z,31.54
2022-11-15T05:21:29.481Z,34.29
2022-11-15T05:22:31.307Z,35.49
2022-11-15T05:23:33.929Z,32.73
2022-11-15T05:24:36.150Z,42.22
2022-11-15T05:25:37.949Z,46.67
2022-11-15T05:26:39.865Z,42.81
2022-11-15T05:27:41.648Z,44.78
2022-11-15T05:28:43.401Z,52.36
2022-11-15T05:29:45.211Z,61.85
2022-11-15T05:30:47.118Z,63.10
2022-11-15T05:31:48.925Z,57.37
2022-11-15T05:32:50.732Z,68.26
2022-11-15T05:33:52.584Z,63.04
2022-11-15T05:34:54.374Z,60.51
2022-11-15T05:35:56.193Z,56.14
2022-11-15T05:36:58.129Z,55.25
2022-11-15T05:37:59.926Z,45.64
2022-11-15T05:39:01.791Z,38.53
2022-11-15T05:40:03.700Z,34.93
2022-11-15T05:41:05.506Z,37.54
2022-11-15T05:42:07.293Z,36.99
2022-11-15T05:43:09.111Z,37.51
2022-11-15T05:44:10.954Z,31.69
2022-11-15T05:45:12.782Z,31.35
2022-11-15T05:46:15.810Z,30.43
2022-11-15T05:47:17.610Z,33.05
2022-11-15T05:48:19.413Z,30.61
2022-11-15T05:49:21.291Z,28.71
2022-11-15T05:50:23.212Z,33.66
2022-11-15T05:51:25.019Z,27.43
2022-11-15T05:52:26.814Z,28.01
2022-11-15T05:53:28.781Z,33.19
2022-11-15T05:54:30.777Z,28.14
2022-11-15T05:55:32.584Z,25.67
2022-11-15T05:56:34.705Z,25.70
2022-11-15T05:57:36.520Z,28.76
2022-11-15T05:58:38.326Z,30.35
2022-11-15T05:59:40.188Z,29.61
2022-11-15T06:00:42.222Z,25.11
2022-11-15T06:01:44.084Z,25.89
2022-11-15T06:02:45.912Z,26.08
2022-11-15T06:03:47.744Z,27.45
2022-11-15T06:04:49.580Z,26.41
2022-11-15T06:05:51.368Z,26.17
2022-11-15T06:06:53.212Z,26.23
2022-11-15T06:07:55.108Z,29.36
2022-11-15T06:08:56.902Z,29.11
2022-11-15T06:09:58.800Z,29.10
2022-11-15T06:11:00.713Z,27.81
2022-11-15T06:12:02.513Z,32.38
2022-11-15T06:13:04.340Z,28.70
2022-11-15T06:14:06.167Z,28.96
2022-11-15T06:15:08.052Z,32.80
2022-11-15T06:16:10.792Z,29.81
2022-11-15T06:17:12.646Z,32.62
2022-11-15T06:18:14.461Z,31.27
2022-11-15T06:19:16.263Z,33.86
2022-11-15T06:20:18.230Z,34.91
2022-11-15T06:21:20.068Z,32.88
2022-11-15T06:22:21.865Z,30.89
2022-11-15T06:23:26.127Z,33.23
2022-11-15T06:24:27.362Z,30.52
2022-11-15T06:25:29.235Z,32.33
2022-11-15T06:26:31.165Z,32.51
2022-11-15T06:27:32.995Z,33.25
2022-11-15T06:28:34.811Z,33.65
2022-11-15T06:29:36.602Z,31.61
2022-11-15T06:30:38.607Z,33.58
2022-11-15T06:31:40.436Z,32.86
2022-11-15T06:32:42.245Z,32.93
2022-11-15T06:33:44.166Z,32.33
2022-11-15T06:34:46.008Z,33.13
2022-11-15T06:35:47.852Z,31.46
2022-11-15T06:36:49.768Z,35.93
2022-11-15T06:37:51.603Z,37.38
2022-11-15T06:38:53.444Z,32.79
2022-11-15T06:39:55.263Z,31.03
2022-11-15T06:40:57.314Z,30.70
2022-11-15T06:41:59.158Z,33.49
2022-11-15T06:43:00.985Z,38.99
2022-11-15T06:44:02.808Z,35.56
2022-11-15T06:45:04.601Z,39.45
2022-11-15T06:46:07.968Z,37.92
2022-11-15T06:47:09.832Z,37.54
2022-11-15T06:48:11.674Z,49.19
2022-11-15T06:49:13.498Z,46.79
2022-11-15T06:50:15.623Z,55.29
2022-11-15T06:51:17.472Z,64.91
2022-11-15T06:52:19.307Z,57.69
2022-11-15T06:53:21.133Z,49.81
2022-11-15T06:54:23.019Z,42.01
2022-11-15T06:55:24.816Z,43.85
2022-11-15T06:56:26.777Z,40.74
2022-11-15T06:57:28.582Z,37.81
2022-11-15T06:58:30.503Z,35.85
2022-11-15T06:59:36.333Z,36.57
2022-11-15T07:00:36.197Z,44.21
2022-11-15T07:01:38.110Z,40.20
2022-11-15T07:02:39.979Z,45.06
2022-11-15T07:03:41.775Z,45.97
2022-11-15T07:04:43.579Z,41.54
2022-11-15T07:05:45.381Z,39.74
2022-11-15T07:06:47.363Z,38.32
2022-11-15T07:07:49.139Z,34.89
2022-11-15T07:08:50.966Z,32.48
2022-11-15T07:09:52.781Z,29.19
2022-11-15T07:10:54.714Z,24.71
2022-11-15T07:11:56.645Z,23.11
2022-11-15T07:12:58.473Z,22.09
2022-11-15T07:14:00.286Z,19.36
2022-11-15T07:15:02.115Z,15.72
2022-11-15T07:16:04.016Z,18.21
2022-11-15T07:17:05.909Z,18.36
2022-11-15T07:18:07.731Z,19.33
2022-11-15T07:19:09.553Z,22.00
2022-11-15T07:20:12.190Z,24.96
2022-11-15T07:21:14.020Z,30.75
2022-11-15T07:22:15.884Z,31.70
2022-11-15T07:23:17.752Z,35.80
2022-11-15T07:24:19.788Z,38.95
2022-11-15T07:25:21.629Z,36.03
2022-11-15T07:26:23.453Z,34.75
2022-11-15T07:27:25.486Z,29.24
2022-11-15T07:28:27.497Z,28.69
2022-11-15T07:29:29.718Z,27.02
2022-11-15T07:30:31.607Z,25.85
2022-11-15T07:31:33.426Z,27.49
2022-11-15T07:32:35.293Z,34.35
2022-11-15T07:33:37.100Z,25.95
2022-11-15T07:34:39.090Z,24.73
2022-11-15T07:35:40.934Z,28.07
2022-11-15T07:36:43.000Z,31.93
2022-11-15T07:37:44.872Z,29.10
2022-11-15T07:38:46.708Z,26.22
2022-11-15T07:39:48.592Z,27.33
2022-11-15T07:40:50.529Z,20.96
2022-11-15T07:41:52.355Z,21.57
2022-11-15T07:42:54.263Z,20.01
2022-11-15T07:43:56.048Z,20.73
2022-11-15T07:44:57.843Z,20.01
2022-11-15T07:45:59.895Z,19.95
2022-11-15T07:47:01.783Z,19.55
2022-11-15T07:48:03.636Z,16.39
2022-11-15T07:49:05.466Z,15.99
2022-11-15T07:50:07.710Z,13.99
2022-11-15T07:52:30.712Z,14.78
2022-11-15T07:53:32.875Z,15.21
2022-11-15T07:54:34.934Z,14.66
2022-11-15T07:55:36.725Z,17.19
2022-11-15T07:56:38.641Z,15.15
2022-11-15T07:57:40.443Z,16.62
2022-11-15T07:58:42.452Z,15.55
2022-11-15T07:59:44.270Z,16.50
2022-11-15T08:00:46.198Z,15.47
2022-11-15T08:01:48.140Z,13.37
2022-11-15T08:02:50.217Z,16.55
2022-11-15T08:03:52.157Z,14.27
2022-11-15T08:04:53.986Z,12.41
2022-11-15T08:05:55.788Z,11.66
2022-11-15T08:06:57.743Z,14.62
2022-11-15T08:07:59.616Z,12.65
2022-11-15T08:09:01.471Z,13.35
2022-11-15T08:10:03.396Z,12.11
2022-11-15T08:11:05.212Z,13.95
2022-11-15T08:12:07.036Z,11.88
2022-11-15T08:13:08.900Z,11.57
2022-11-15T08:14:10.823Z,11.32
2022-11-15T08:15:12.649Z,14.09
2022-11-15T08:16:14.689Z,14.79
2022-11-15T08:17:16.523Z,12.99
2022-11-15T08:18:18.321Z,13.47
2022-11-15T08:19:20.180Z,12.35
2022-11-15T08:20:22.189Z,9.97
2022-11-15T08:21:24.018Z,11.86
2022-11-15T08:22:25.846Z,14.73
2022-11-15T08:23:27.675Z,14.57
2022-11-15T08:24:29.557Z,14.24
2022-11-15T08:25:31.358Z,13.74
2022-11-15T08:26:33.265Z,12.13
2022-11-15T08:27:35.138Z,12.56
2022-11-15T08:28:37.017Z,12.24
2022-11-15T08:29:38.863Z,12.03
2022-11-15T08:30:40.790Z,11.93
2022-11-15T08:31:42.614Z,16.82
2022-11-15T08:32:44.433Z,12.84
2022-11-15T08:33:46.243Z,11.04
2022-11-15T08:34:48.309Z,12.13
2022-11-15T08:35:50.146Z,10.91
2022-11-15T08:36:52.063Z,15.13
2022-11-15T08:37:53.908Z,13.88
2022-11-15T08:38:55.720Z,11.06
2022-11-15T08:39:57.569Z,12.65
2022-11-15T08:40:59.519Z,15.37
2022-11-15T08:42:01.541Z,11.54
2022-11-15T08:43:03.362Z,13.99
2022-11-15T08:44:05.180Z,13.42
2022-11-15T08:45:07.059Z,11.59
2022-11-15T08:46:09.274Z,15.75
2022-11-15T08:47:11.097Z,15.90
2022-11-15T08:48:12.915Z,13.41
2022-11-15T08:49:14.719Z,11.74
2022-11-15T08:50:16.683Z,16.11
2022-11-15T08:51:18.520Z,12.42
2022-11-15T08:52:20.357Z,15.29
2022-11-15T08:53:22.159Z,14.17
2022-11-15T08:54:23.991Z,16.29
2022-11-15T08:55:25.874Z,14.67
2022-11-15T08:56:27.656Z,14.69
2022-11-15T08:57:29.477Z,12.59
2022-11-15T08:58:31.584Z,12.93
2022-11-15T08:59:33.830Z,13.88
2022-11-15T09:00:35.834Z,12.83
2022-11-15T09:01:37.698Z,11.69
2022-11-15T09:02:39.658Z,11.00
2022-11-15T09:03:41.483Z,15.36
2022-11-15T09:04:43.315Z,13.75
2022-11-15T09:05:45.158Z,12.51
2022-11-15T09:06:47.125Z,12.37
2022-11-15T09:07:48.898Z,10.25
2022-11-15T09:08:50.730Z,11.09
2022-11-15T09:09:52.552Z,9.61
2022-11-15T09:10:54.504Z,10.21
2022-11-15T09:12:01.144Z,9.94
2022-11-15T09:12:59.966Z,10.06
2022-11-15T09:14:01.773Z,8.91
2022-11-15T09:15:03.584Z,10.54
2022-11-15T09:16:05.583Z,9.17
2022-11-15T09:17:07.412Z,9.70
2022-11-15T09:18:09.224Z,13.15
2022-11-15T09:19:12.037Z,16.50
2022-11-15T09:20:14.874Z,10.85
2022-11-15T09:21:16.748Z,14.37
2022-11-15T09:22:18.590Z,11.19
2022-11-15T09:23:20.413Z,7.91
2022-11-15T09:24:22.230Z,8.62
2022-11-15T09:25:24.042Z,11.33
2022-11-15T09:26:26.030Z,12.00
2022-11-15T09:27:27.853Z,10.07
2022-11-15T09:28:30.093Z,8.15
2022-11-15T09:29:32.087Z,9.24
2022-11-15T09:30:34.141Z,9.80
2022-11-15T09:31:36.014Z,10.68
2022-11-15T09:32:39.341Z,11.55
2022-11-15T09:33:41.504Z,9.81
2022-11-15T09:34:43.302Z,10.19
2022-11-15T09:35:45.139Z,8.63
2022-11-15T09:36:47.389Z,8.21
2022-11-15T09:37:54.943Z,8.09
2022-11-15T09:38:52.809Z,9.47
2022-11-15T09:39:54.638Z,8.17
2022-11-15T09:40:56.557Z,7.07
2022-11-15T09:41:58.432Z,7.72
2022-11-15T09:43:00.220Z,7.55
2022-11-15T09:44:02.031Z,7.71
2022-11-15T09:45:03.842Z,6.58
2022-11-15T09:46:05.775Z,6.64
2022-11-15T09:47:07.655Z,6.26
2022-11-15T09:48:09.473Z,7.89
2022-11-15T09:49:11.293Z,6.23
2022-11-15T09:50:13.299Z,7.21
2022-11-15T09:51:15.100Z,5.83
2022-11-15T09:52:16.954Z,6.28
2022-11-15T09:53:28.716Z,7.52
2022-11-15T09:55:26.052Z,7.05
2022-11-15T09:56:28.274Z,8.85
2022-11-15T09:57:30.147Z,7.69
2022-11-15T09:58:32.200Z,7.87
2022-11-15T09:59:34.217Z,7.87
2022-11-15T10:00:51.491Z,6.53
2022-11-15T10:01:40.125Z,7.36
2022-11-15T10:02:42.046Z,5.68
2022-11-15T10:03:43.865Z,8.42
2022-11-15T10:04:45.666Z,10.36
2022-11-15T10:05:47.479Z,8.65
2022-11-15T10:06:49.326Z,11.85
2022-11-15T10:07:51.250Z,9.83
2022-11-15T10:08:53.076Z,8.83
2022-11-15T10:09:54.893Z,9.42
2022-11-15T10:11:15.922Z,10.84
2022-11-15T10:12:00.327Z,10.14
2022-11-15T10:13:02.196Z,9.93
2022-11-15T10:14:04.019Z,9.01
2022-11-15T10:15:05.844Z,7.45
2022-11-15T10:16:08.058Z,6.07
2022-11-15T10:17:09.862Z,6.95
2022-11-15T10:18:11.787Z,7.27
2022-11-15T10:19:13.594Z,12.33
2022-11-15T10:20:15.710Z,9.03
2022-11-15T10:21:17.527Z,10.72
2022-11-15T10:22:19.337Z,10.08
2022-11-15T10:23:21.200Z,12.86
2022-11-15T10:24:23.013Z,9.60
2022-11-15T10:25:24.821Z,8.72
2022-11-15T10:26:26.736Z,8.43
2022-11-15T10:27:28.556Z,5.99
2022-11-15T10:28:30.908Z,7.34
2022-11-15T10:29:33.180Z,8.57
2022-11-15T10:30:35.090Z,7.27
2022-11-15T10:31:36.901Z,7.47
2022-11-15T10:32:38.724Z,8.84
2022-11-15T10:33:40.619Z,8.00
2022-11-15T10:34:42.624Z,6.65
2022-11-15T10:35:44.452Z,8.07
2022-11-15T10:36:50.146Z,8.43
2022-11-15T10:37:49.989Z,5.69
2022-11-15T10:38:51.898Z,6.21
2022-11-15T10:39:53.654Z,6.48
2022-11-15T10:40:55.578Z,6.62
2022-11-15T10:41:57.386Z,6.49
2022-11-15T10:42:59.199Z,23.45
2022-11-15T10:44:01.054Z,15.57
2022-11-15T10:45:02.869Z,14.31
2022-11-15T10:46:24.581Z,25.03
2022-11-15T10:47:08.526Z,15.39
2022-11-15T10:48:10.356Z,10.87
2022-11-15T10:49:12.235Z,7.89
2022-11-15T10:50:15.100Z,6.22
2022-11-15T10:51:16.924Z,8.42
2022-11-15T10:52:18.728Z,8.93
2022-11-15T10:53:20.558Z,8.12
2022-11-15T10:54:22.415Z,6.60
2022-11-15T10:55:24.226Z,7.05
2022-11-15T10:56:26.130Z,5.15
2022-11-15T10:57:27.952Z,4.39
2022-11-15T10:58:30.105Z,5.54
2022-11-15T10:59:37.657Z,6.57
2022-11-15T11:00:35.903Z,4.14
2022-11-15T11:01:37.752Z,5.52
2022-11-15T11:02:39.588Z,5.71
2022-11-15T11:03:41.420Z,4.67
2022-11-15T11:04:43.304Z,4.35
2022-11-15T11:05:45.127Z,4.65
2022-11-15T11:06:47.012Z,5.40
2022-11-15T11:07:48.916Z,5.09
2022-11-15T11:08:50.721Z,4.64
2022-11-15T11:09:52.570Z,5.29
2022-11-15T11:11:00.266Z,5.93
2022-11-15T11:11:58.492Z,6.07
2022-11-15T11:13:00.318Z,6.03
2022-11-15T11:14:02.151Z,5.85
2022-11-15T11:15:04.022Z,6.49
2022-11-15T11:16:06.066Z,6.05
2022-11-15T11:17:07.895Z,4.49
2022-11-15T11:18:09.721Z,6.41
2022-11-15T11:19:11.517Z,5.78
2022-11-15T11:20:14.278Z,6.97
2022-11-15T11:21:16.081Z,5.16
2022-11-15T11:22:17.908Z,3.67
2022-11-15T11:23:19.754Z,5.01
2022-11-15T11:24:21.553Z,5.04
2022-11-15T11:25:23.471Z,4.50
2022-11-15T11:26:25.231Z,4.91
2022-11-15T11:27:27.066Z,6.73
2022-11-15T11:28:29.148Z,5.96
2022-11-15T11:29:31.167Z,5.23
2022-11-15T11:30:33.118Z,6.69
2022-11-15T11:31:34.921Z,6.48
2022-11-15T11:32:36.724Z,5.65
2022-11-15T11:33:38.589Z,5.90
2022-11-15T11:34:40.398Z,8.35
2022-11-15T11:35:42.296Z,7.94
2022-11-15T11:36:44.241Z,8.30
2022-11-15T11:37:46.076Z,5.85
2022-11-15T11:38:47.916Z,5.59
2022-11-15T11:39:49.713Z,3.63
2022-11-15T11:40:51.652Z,5.01
2022-11-15T11:41:53.470Z,4.22
2022-11-15T11:42:55.278Z,6.54
2022-11-15T11:43:57.083Z,5.99
2022-11-15T11:44:58.915Z,4.97
2022-11-15T11:46:00.794Z,4.95
2022-11-15T11:47:02.624Z,3.73
2022-11-15T11:48:04.438Z,4.22
2022-11-15T11:49:06.272Z,5.14
2022-11-15T11:50:08.300Z,14.65
2022-11-15T11:51:10.234Z,22.36
2022-11-15T11:52:12.033Z,14.34
2022-11-15T11:53:13.823Z,10.22
2022-11-15T11:54:16.138Z,6.33
2022-11-15T11:55:17.938Z,6.83
2022-11-15T11:56:19.810Z,6.11
2022-11-15T11:57:21.660Z,4.45
2022-11-15T11:58:23.443Z,5.38
2022-11-15T11:59:25.272Z,5.82
2022-11-15T12:00:27.207Z,5.52
2022-11-15T12:01:30.325Z,5.66
2022-11-15T12:02:32.249Z,4.19
2022-11-15T12:03:34.292Z,5.71
2022-11-15T12:04:36.110Z,5.36
2022-11-15T12:05:37.926Z,6.74
2022-11-15T12:06:39.941Z,6.47
2022-11-15T12:07:41.778Z,12.29
2022-11-15T12:08:43.578Z,12.40
2022-11-15T12:09:45.370Z,19.45
2022-11-15T12:10:47.317Z,21.65
2022-11-15T12:11:49.282Z,20.63
2022-11-15T12:12:51.096Z,20.06
2022-11-15T12:13:52.921Z,15.65
2022-11-15T12:14:54.751Z,12.55
2022-11-15T12:15:56.589Z,10.68
2022-11-15T12:16:58.658Z,11.59
2022-11-15T12:18:00.450Z,8.96
2022-11-15T12:19:02.265Z,6.71
2022-11-15T12:20:04.219Z,6.76
2022-11-15T12:21:06.022Z,7.03
2022-11-15T12:22:07.882Z,8.15
2022-11-15T12:23:09.902Z,7.77
2022-11-15T12:24:11.692Z,6.67
2022-11-15T12:25:13.535Z,6.39
2022-11-15T12:26:15.477Z,6.06
2022-11-15T12:27:20.655Z,6.26
2022-11-15T12:28:21.027Z,6.13
2022-11-15T12:29:22.829Z,5.03
2022-11-15T12:30:24.640Z,7.19
2022-11-15T12:31:26.441Z,5.55
2022-11-15T12:32:28.319Z,12.53
2022-11-15T12:33:30.146Z,12.33
2022-11-15T12:34:31.972Z,11.65
2022-11-15T12:35:33.787Z,15.25
2022-11-15T12:36:35.731Z,14.73
2022-11-15T12:37:37.684Z,13.66
2022-11-15T12:38:39.515Z,11.41
2022-11-15T12:39:41.357Z,8.78
2022-11-15T12:40:43.277Z,8.41
2022-11-15T12:41:45.128Z,6.81
2022-11-15T12:42:46.949Z,10.43
2022-11-15T12:43:48.769Z,7.87
2022-11-15T12:44:50.605Z,7.78
2022-11-15T12:45:52.441Z,7.98
2022-11-15T12:46:54.347Z,6.97
2022-11-15T12:47:56.318Z,6.80
2022-11-15T12:48:58.111Z,8.49
2022-11-15T12:49:59.937Z,8.33
2022-11-15T12:51:01.742Z,7.51
2022-11-15T12:52:03.629Z,10.13
2022-11-15T12:53:05.579Z,10.81
2022-11-15T12:54:07.386Z,11.07
2022-11-15T12:55:09.501Z,11.45
2022-11-15T12:56:13.138Z,12.19
2022-11-15T12:57:14.971Z,12.56
2022-11-15T12:58:16.853Z,15.52
2022-11-15T12:59:18.668Z,20.47
2022-11-15T13:00:25.113Z,22.31
2022-11-15T13:01:25.878Z,26.90
2022-11-15T13:02:27.819Z,24.91
2022-11-15T13:03:29.685Z,24.49
2022-11-15T13:04:31.848Z,28.84
2022-11-15T13:05:33.676Z,38.28
2022-11-15T13:06:35.674Z,34.69
2022-11-15T13:07:37.563Z,37.61
2022-11-15T13:08:39.558Z,36.60
2022-11-15T13:09:41.695Z,52.88
2022-11-15T13:10:43.631Z,55.11
2022-11-15T13:11:45.535Z,46.64
2022-11-15T13:12:47.385Z,38.99
2022-11-15T13:13:49.226Z,54.79
2022-11-15T13:14:51.054Z,61.54
2022-11-15T13:15:52.884Z,98.37
2022-11-15T13:16:54.857Z,121.56
2022-11-15T13:17:56.651Z,113.80
2022-11-15T13:18:58.549Z,105.29
2022-11-15T13:20:00.429Z,97.87
2022-11-15T13:21:03.062Z,88.62
2022-11-15T13:22:05.079Z,80.28
2022-11-15T13:23:06.902Z,59.99
2022-11-15T13:24:08.827Z,55.08
2022-11-15T13:25:10.765Z,40.98
2022-11-15T13:26:14.262Z,27.46